createdAt,value
2023-04-13T01:47:29.064Z,99905.44
2023-04-13T01:50:22.560Z,99918.59
2023-04-13T01:53:02.359Z,99936.56
2023-04-13T01:55:33.657Z,99925.81
2023-04-13T01:58:02.758Z,99925.81
2023-04-13T02:47:31.787Z,99944.97
2023-04-13T02:50:00.855Z,99944.97
2023-04-13T02:52:37.621Z,99944.19
2023-04-13T02:55:08.224Z,99946.16
2023-04-13T02:57:50.168Z,99948.97
2023-04-13T04:46:49.302Z,99982.53
2023-04-13T04:49:18.835Z,99975.75
2023-04-13T04:51:47.549Z,99980.53
2023-04-13T04:54:16.924Z,99982.53
2023-04-13T04:56:47.717Z,99990.94
2023-04-13T04:59:18.327Z,99995.34
2023-04-13T05:02:04.273Z,99990.13
2023-04-13T05:04:33.560Z,99988.13
2023-04-13T05:07:03.992Z,99993.75
2023-04-13T05:09:37.539Z,99999.34
2023-04-13T05:12:06.179Z,99994.94
2023-04-13T05:14:37.606Z,99992.13
2023-04-13T05:17:12.137Z,99997.72
2023-04-13T05:19:41.953Z,99999.72
2023-04-13T05:22:24.094Z,100002.53
2023-04-13T05:24:58.645Z,100010.53
2023-04-13T05:27:26.766Z,100016.13
2023-04-13T05:29:57.347Z,100008.91
2023-04-13T05:32:28.237Z,100020.13
2023-04-13T05:34:59.281Z,100026.50
2023-04-13T05:37:28.678Z,100031.31
2023-04-13T05:39:56.785Z,100029.69
2023-04-13T05:42:31.422Z,100045.28
2023-04-13T05:45:00.599Z,100044.84
2023-04-13T05:47:31.202Z,100046.84
2023-04-13T05:50:06.569Z,100053.25
2023-04-13T05:52:37.435Z,100052.09
2023-04-13T05:55:08.601Z,100060.47
2023-04-13T05:57:36.853Z,100062.47
2023-04-13T06:00:10.907Z,100066.88
2023-04-13T06:02:49.616Z,100069.69
2023-04-13T06:05:19.639Z,100080.06
2023-04-13T06:07:48.370Z,100068.06
2023-04-13T06:10:34.275Z,100085.66
2023-04-13T06:13:02.939Z,100082.06
2023-04-13T06:15:43.666Z,100081.66
2023-04-13T06:18:16.244Z,100083.28
2023-04-13T06:20:50.973Z,100083.28
2023-04-13T06:23:21.954Z,100089.66
2023-04-13T06:25:53.401Z,100089.25
2023-04-13T06:28:34.221Z,100091.25
2023-04-13T06:31:03.642Z,100100.81
2023-04-13T06:33:36.579Z,100094.41
2023-04-13T06:36:15.108Z,100101.25
2023-04-13T06:38:45.785Z,100106.41
2023-04-13T06:41:15.148Z,100110.03
2023-04-13T06:43:50.274Z,100112.44
2023-04-13T06:46:37.623Z,100109.66
2023-04-13T06:49:19.073Z,100122.44
2023-04-13T06:51:50.133Z,100131.25
2023-04-13T06:54:20.551Z,100129.66
2023-04-13T06:56:58.850Z,100133.25
2023-04-13T06:59:29.265Z,100148.03
2023-04-13T07:05:19.337Z,100149.69
2023-04-13T07:07:54.690Z,100147.69
2023-04-13T07:10:24.909Z,100144.09
2023-04-13T07:12:58.159Z,100153.66
2023-04-13T07:15:34.657Z,100149.25
2023-04-13T07:18:19.397Z,100153.22
2023-04-13T07:21:02.920Z,100148.81
2023-04-13T07:23:51.162Z,100154.84
2023-04-13T07:26:22.352Z,100148.84
2023-04-13T07:28:54.717Z,100148.03
2023-04-13T07:31:44.606Z,100149.69
2023-04-13T07:34:42.791Z,100151.28
2023-04-13T07:37:16.367Z,100158.50
2023-04-13T07:39:50.259Z,100168.88
2023-04-13T07:42:19.706Z,100155.28
2023-04-13T07:44:52.747Z,100152.47
2023-04-13T07:47:30.856Z,100152.91
2023-04-13T07:50:06.534Z,100147.31
2023-04-13T07:52:37.084Z,100157.31
2023-04-13T07:55:05.973Z,100158.50
2023-04-13T07:57:38.024Z,100159.28
2023-04-13T08:00:08.756Z,100159.28
2023-04-13T08:02:49.978Z,100169.69
2023-04-13T08:05:27.134Z,100175.28
2023-04-13T08:08:01.746Z,100175.66
2023-04-13T08:10:37.570Z,100183.25
2023-04-13T08:13:12.168Z,100180.06
2023-04-13T08:15:42.919Z,100184.88
2023-04-13T08:18:11.785Z,100190.47
2023-04-13T08:20:40.706Z,100200.06
2023-04-13T08:23:13.649Z,100205.66
2023-04-13T08:25:42.645Z,100195.63
2023-04-13T08:28:15.775Z,100204.00
2023-04-13T08:30:48.705Z,100212.84
2023-04-13T08:33:20.729Z,100212.84
2023-04-13T08:35:51.112Z,100210.88
2023-04-13T08:38:27.354Z,100212.47
2023-04-13T08:41:03.599Z,100213.59
2023-04-13T08:43:39.860Z,100205.59
2023-04-13T08:46:21.763Z,100211.19
2023-04-13T08:48:57.171Z,100206.41
2023-04-13T08:51:35.545Z,100216.84
2023-04-13T08:54:08.687Z,100215.22
2023-04-13T08:56:51.643Z,100211.19
2023-04-13T08:59:26.920Z,100214.38
2023-04-13T09:02:23.187Z,100211.56
2023-04-13T09:05:17.835Z,100206.41
2023-04-13T09:07:54.373Z,100211.25
2023-04-13T09:10:29.135Z,100218.88
2023-04-13T09:13:00.817Z,100211.25
2023-04-13T09:15:39.385Z,100215.22
2023-04-13T09:18:38.942Z,100224.75
2023-04-13T09:21:11.673Z,100218.34
2023-04-13T09:23:41.047Z,100221.56
2023-04-13T09:26:11.946Z,100220.81
2023-04-13T09:28:49.922Z,100226.03
2023-04-13T09:31:19.223Z,100227.19
2023-04-13T09:33:51.115Z,100225.19
2023-04-13T09:36:25.836Z,100232.81
2023-04-13T09:38:59.521Z,100226.41
2023-04-13T09:41:40.134Z,100227.19
2023-04-13T09:44:29.653Z,100225.56
2023-04-13T09:47:01.055Z,100224.00
2023-04-13T09:49:38.328Z,100220.38
2023-04-13T09:52:07.615Z,100230.38
2023-04-13T09:54:36.349Z,100227.22
2023-04-13T09:57:08.878Z,100236.84
2023-04-13T09:59:37.574Z,100235.66
2023-04-13T10:02:10.372Z,100235.28
2023-04-13T10:04:38.948Z,100227.69
2023-04-13T10:07:10.880Z,100232.88
2023-04-13T10:09:39.879Z,100222.84
2023-04-13T10:12:15.116Z,100237.66
2023-04-13T10:14:44.883Z,100234.44
2023-04-13T10:17:19.931Z,100240.84
2023-04-13T10:19:49.552Z,100248.03
2023-04-13T10:22:20.763Z,100248.84
2023-04-13T10:24:49.352Z,100254.50
2023-04-13T10:27:19.662Z,100251.72
2023-04-13T10:29:50.219Z,100241.69
2023-04-13T10:32:34.990Z,100247.28
2023-04-13T10:35:11.996Z,100248.91
2023-04-13T10:37:44.163Z,100251.72
2023-04-13T10:40:14.837Z,100256.13
2023-04-13T10:45:21.491Z,100258.53
2023-04-13T10:47:49.802Z,100250.53
2023-04-13T10:50:18.512Z,100258.47
2023-04-13T10:53:04.434Z,100257.31
2023-04-13T10:55:33.228Z,100271.31
2023-04-13T10:58:03.371Z,100258.47
2023-04-13T11:03:12.227Z,100272.47
2023-04-13T11:05:42.229Z,100273.66
2023-04-13T11:08:10.221Z,100268.84
2023-04-13T11:10:38.256Z,100269.66
2023-04-13T11:13:07.763Z,100271.31
2023-04-13T11:15:36.513Z,100277.69
2023-04-13T11:18:06.315Z,100280.44
2023-04-13T11:20:34.743Z,100278.44
2023-04-13T11:23:04.192Z,100279.63
2023-04-13T11:25:32.381Z,100287.22
2023-04-13T11:28:01.017Z,100283.22
2023-04-13T11:30:30.817Z,100289.25
2023-04-13T11:33:00.228Z,100280.03
2023-04-13T11:35:35.890Z,100278.81
2023-04-13T11:38:06.540Z,100279.56
2023-04-13T11:40:35.452Z,100280.03
2023-04-13T11:43:07.631Z,100286.41
2023-04-13T11:45:43.778Z,100298.03
2023-04-13T11:48:17.946Z,100299.59
2023-04-13T11:50:49.267Z,100300.03
2023-04-13T11:53:21.366Z,100306.81
2023-04-13T11:55:57.324Z,100297.66
2023-04-13T11:58:28.963Z,100302.88
2023-04-13T12:01:03.041Z,100297.66
2023-04-13T12:03:53.380Z,100298.09
2023-04-13T12:06:47.680Z,100292.06
2023-04-13T12:09:21.124Z,100293.69
2023-04-13T12:12:20.529Z,100292.06
2023-04-13T12:15:04.683Z,100292.88
2023-04-13T12:17:49.917Z,100298.91
2023-04-13T12:20:23.325Z,100295.28
2023-04-13T12:23:00.305Z,100297.66
2023-04-13T12:25:57.736Z,100299.28
2023-04-13T12:28:31.631Z,100294.09
2023-04-13T12:31:05.443Z,100297.72
2023-04-13T12:33:39.133Z,100300.13
2023-04-13T12:36:11.694Z,100304.13
2023-04-13T12:38:41.406Z,100300.09
2023-04-13T12:41:13.058Z,100293.69
2023-04-13T12:43:43.688Z,100295.28
2023-04-13T12:46:12.579Z,100290.50
2023-04-13T12:48:46.356Z,100288.13
2023-04-13T12:51:15.890Z,100290.56
2023-04-13T12:53:44.116Z,100282.53
2023-04-13T12:56:12.427Z,100292.91
2023-04-13T12:58:40.656Z,100285.72
2023-04-13T13:01:08.912Z,100292.91
2023-04-13T13:03:38.120Z,100300.91
2023-04-13T13:06:11.177Z,100305.31
2023-04-13T13:08:42.041Z,100304.91
2023-04-13T13:11:10.494Z,100308.97
2023-04-13T13:13:40.842Z,100309.72
2023-04-13T13:16:12.341Z,100308.09
2023-04-13T13:18:50.772Z,100304.13
2023-04-13T13:21:23.269Z,100297.31
2023-04-13T13:23:51.660Z,100303.38
2023-04-13T13:26:24.541Z,100295.41
2023-04-13T13:28:54.548Z,100295.41
2023-04-13T13:31:23.367Z,100293.78
2023-04-13T13:33:51.877Z,100291.41
2023-04-13T13:36:24.006Z,100293.03
2023-04-13T13:38:52.174Z,100297.00
2023-04-13T13:41:21.241Z,100300.59
2023-04-13T13:43:52.599Z,100299.00
2023-04-13T13:46:23.243Z,100295.41
2023-04-13T13:48:57.035Z,100304.25
2023-04-13T13:51:59.918Z,100307.03
2023-04-13T13:54:50.420Z,100310.59
2023-04-13T13:57:22.105Z,100309.78
2023-04-13T13:59:50.552Z,100316.19
2023-04-13T14:02:20.830Z,100322.56
2023-04-13T14:04:51.843Z,100317.78
2023-04-13T14:07:21.835Z,100325.00
2023-04-13T14:09:50.331Z,100323.84
2023-04-13T14:12:19.373Z,100325.00
2023-04-13T14:14:49.248Z,100322.56
2023-04-13T14:17:21.983Z,100320.91
2023-04-13T14:19:53.825Z,100326.13
2023-04-13T14:22:23.725Z,100316.97
2023-04-13T14:24:54.992Z,100323.38
2023-04-13T14:27:23.319Z,100312.19
2023-04-13T14:29:51.522Z,100328.97
2023-04-13T14:32:24.139Z,100333.28
2023-04-13T14:34:53.477Z,100336.09
2023-04-13T14:37:32.719Z,100329.75
2023-04-13T14:40:05.727Z,100338.16
2023-04-13T14:42:33.957Z,100332.56
2023-04-13T14:45:08.355Z,100332.97
2023-04-13T14:47:36.715Z,100321.78
2023-04-13T14:50:05.105Z,100330.59
2023-04-13T14:52:33.318Z,100333.03
2023-04-13T14:55:07.733Z,100333.84
2023-04-13T14:57:42.466Z,100337.00
2023-04-13T15:00:47.779Z,100339.78
2023-04-13T15:03:26.956Z,100347.84
2023-04-13T15:06:09.870Z,100345.03
2023-04-13T15:08:48.417Z,100353.03
2023-04-13T15:11:57.983Z,100355.38
2023-04-13T15:14:30.328Z,100367.44
2023-04-13T15:16:58.759Z,100367.38
2023-04-13T15:19:28.081Z,100371.34
2023-04-13T15:22:01.676Z,100372.97
2023-04-13T15:24:29.995Z,100389.38
2023-04-13T15:26:59.014Z,100370.97
2023-04-13T15:29:29.111Z,100364.19
2023-04-13T15:31:59.157Z,100368.16
2023-04-13T15:34:33.917Z,100368.97
2023-04-13T15:37:12.930Z,100377.03
2023-04-13T15:40:18.494Z,100384.22
2023-04-13T15:43:23.784Z,100389.81
2023-04-13T15:45:56.732Z,100388.63
2023-04-13T15:48:31.300Z,100401.03
2023-04-13T15:51:02.097Z,100402.63
2023-04-13T15:53:30.476Z,100405.44
2023-04-13T15:56:09.827Z,100408.63
2023-04-13T15:58:38.563Z,100411.03
2023-04-13T16:01:12.712Z,100409.03
2023-04-13T16:03:45.800Z,100415.47
2023-04-13T16:06:14.200Z,100415.47
2023-04-13T16:12:43.241Z,100421.06
2023-04-13T16:15:12.072Z,100419.88
2023-04-13T16:17:45.662Z,100424.28
2023-04-13T16:20:21.551Z,100426.28
2023-04-13T16:22:59.396Z,100427.47
2023-04-13T16:25:27.904Z,100417.09
2023-04-13T16:28:01.913Z,100419.88
2023-04-13T16:30:36.218Z,100415.81
2023-04-13T16:33:06.333Z,100415.47
2023-04-13T16:35:37.228Z,100421.06
2023-04-13T16:38:05.836Z,100429.09
2023-04-13T16:40:34.173Z,100429.88
2023-04-13T16:43:04.875Z,100436.69
2023-04-13T16:45:33.648Z,100441.09
2023-04-13T16:48:06.577Z,100445.88
2023-04-13T16:50:39.615Z,100450.69
2023-04-13T16:53:08.308Z,100447.41
2023-04-13T16:55:36.757Z,100454.22
2023-04-13T16:58:10.280Z,100464.22
2023-04-13T17:00:42.738Z,100460.25
2023-04-13T17:03:11.515Z,100461.88
2023-04-13T17:05:41.726Z,100457.06
2023-04-13T17:08:18.802Z,100469.09
2023-04-13T17:11:06.025Z,100462.69
2023-04-13T17:13:37.084Z,100463.47
2023-04-13T17:16:05.774Z,100466.28
2023-04-13T17:19:01.819Z,100463.47
2023-04-13T17:25:26.829Z,100469.09
2023-04-13T17:32:03.201Z,100469.91
2023-04-13T17:35:24.886Z,100476.31
2023-04-13T17:41:33.982Z,100487.53
2023-04-13T17:47:41.799Z,100482.72
2023-04-13T17:51:26.739Z,100477.94
2023-04-13T17:58:24.690Z,100472.34
2023-04-13T18:01:12.451Z,100477.94
2023-04-13T18:07:17.844Z,100467.53
2023-04-13T18:10:01.109Z,100472.34
2023-04-13T18:12:48.888Z,100462.75
2023-04-13T18:15:24.969Z,100476.75
2023-04-13T18:17:55.657Z,100482.34
2023-04-13T18:20:34.832Z,100480.72
2023-04-13T18:23:20.436Z,100489.13
2023-04-13T18:26:17.163Z,100490.75
2023-04-13T18:29:36.309Z,100489.13
2023-04-13T18:32:17.570Z,100503.13
2023-04-13T18:34:59.938Z,100517.13
2023-04-13T18:38:05.999Z,100517.13
2023-04-13T18:40:56.897Z,100521.53
2023-04-13T18:43:37.989Z,100523.53
2023-04-13T18:46:10.096Z,100529.53
2023-04-13T18:48:43.230Z,100543.50
2023-04-13T18:52:06.468Z,100553.91
2023-04-13T19:03:39.356Z,100575.47
2023-04-13T19:09:57.231Z,100598.69
2023-04-13T19:21:02.272Z,100621.91
2023-04-13T19:27:57.967Z,100633.09
2023-04-13T19:40:34.494Z,100641.03
2023-04-13T19:47:52.398Z,100657.84
2023-04-13T19:50:56.381Z,100657.84
2023-04-13T19:57:06.708Z,100659.47
2023-04-13T20:00:14.124Z,100661.44
2023-04-13T20:03:38.438Z,100652.25
2023-04-13T20:06:18.878Z,100651.06
2023-04-13T20:08:48.620Z,100646.66
2023-04-13T20:11:19.510Z,100651.06
2023-04-13T20:13:48.464Z,100657.84
2023-04-13T20:16:17.050Z,100649.44
2023-04-13T20:18:53.938Z,100647.81
2023-04-13T20:21:37.040Z,100649.44
2023-04-13T20:24:13.340Z,100647.81
2023-04-13T20:26:48.352Z,100640.25
2023-04-13T20:29:22.035Z,100638.25
2023-04-13T20:31:50.544Z,100627.03
2023-04-13T20:34:24.246Z,100629.84
2023-04-13T20:36:59.131Z,100625.88
2023-04-13T20:39:30.305Z,100625.88
2023-04-13T20:42:51.012Z,100618.66
2023-04-13T20:46:11.173Z,100616.66
2023-04-13T20:49:37.983Z,100608.25
2023-04-13T20:55:52.146Z,100608.25
2023-04-13T21:00:05.302Z,100613.06
2023-04-13T21:02:52.579Z,100621.09
2023-04-13T21:09:49.256Z,100613.06
2023-04-13T21:15:39.212Z,100608.63
2023-04-13T21:18:15.072Z,100601.03
2023-04-13T21:21:04.344Z,100607.44
2023-04-13T21:23:38.640Z,100604.66
2023-04-13T21:26:25.782Z,100601.84
2023-04-13T21:29:16.440Z,100603.84
2023-04-13T21:32:01.869Z,100601.84
2023-04-13T21:34:34.455Z,100590.66
2023-04-13T21:37:06.545Z,100596.25
2023-04-13T21:39:37.528Z,100590.66
2023-04-13T21:42:11.560Z,100590.66
2023-04-13T21:45:06.455Z,100591.84
2023-04-13T21:47:48.320Z,100596.25
2023-04-13T21:50:17.013Z,100599.06
2023-04-13T21:52:45.413Z,100593.44
2023-04-13T21:55:18.493Z,100597.44
2023-04-13T21:57:52.610Z,100596.25
2023-04-13T22:00:22.636Z,100599.41
2023-04-13T22:02:52.063Z,100605.84
2023-04-13T22:05:23.166Z,100615.84
2023-04-13T22:07:55.853Z,100617.03
2023-04-13T22:10:24.430Z,100615.41
2023-04-13T22:13:00.060Z,100619.84
2023-04-13T22:15:30.002Z,100622.63
2023-04-13T22:18:04.982Z,100626.59
2023-04-13T22:20:33.223Z,100628.22
2023-04-13T22:23:01.252Z,100637.78
2023-04-13T22:25:35.126Z,100626.59
2023-04-13T22:28:03.213Z,100633.00
2023-04-13T22:30:35.894Z,100643.38
2023-04-13T22:33:04.051Z,100637.78
2023-04-13T22:35:38.238Z,100631.38
2023-04-13T22:38:24.273Z,100623.78
2023-04-13T22:40:56.012Z,100632.19
2023-04-13T22:43:24.815Z,100626.59
2023-04-13T22:46:00.939Z,100623.78
2023-04-13T22:48:29.153Z,100614.59
2023-04-13T22:50:57.549Z,100624.97
2023-04-13T22:53:26.056Z,100621.81
2023-04-13T22:55:53.970Z,100621.00
2023-04-13T22:58:21.901Z,100612.59
